Time;durP1;ratioP1;P1;durP2;ratioP2;P2;SDS_P1;SDS_P2;PMS_P1;PMS_P2;Temp;Humidity;BMP_temperature;BMP_pressure;BME280_temperature;BME280_humidity;BME280_pressure;Samples;Min_cycle;Max_cycle;Signal;HPM_P1;HPM_P2
2021/03/23 00:01:01;;;;;;;1.80;1.60;;;;;;;0.81;100.00;97626.50;4976052;28;20259;-86
2021/03/23 00:03:29;;;;;;;1.60;1.50;;;;;;;0.69;100.00;97630.41;4976117;28;20209;-87
2021/03/23 00:05:56;;;;;;;1.70;1.60;;;;;;;0.66;100.00;97640.91;4976090;28;20208;-86
2021/03/23 00:08:30;;;;;;;1.67;1.57;;;;;;;0.84;100.00;97647.91;4976237;28;20291;-86
2021/03/23 00:10:59;;;;;;;1.80;1.70;;;;;;;0.71;100.00;97646.72;4975933;28;20666;-87
2021/03/23 00:13:26;;;;;;;2.10;1.90;;;;;;;0.75;100.00;97642.28;4975966;28;20201;-87
2021/03/23 00:15:53;;;;;;;2.33;2.13;;;;;;;0.76;100.00;97657.72;4976151;28;20209;-87
2021/03/23 00:18:21;;;;;;;1.80;1.70;;;;;;;0.78;100.00;97670.59;4976345;28;20220;-86
2021/03/23 00:20:48;;;;;;;1.80;1.70;;;;;;;0.75;100.00;97670.72;4975744;28;20225;-87
2021/03/23 00:23:15;;;;;;;2.17;1.97;;;;;;;0.84;100.00;97670.34;4975951;28;20597;-87
2021/03/23 00:25:42;;;;;;;2.67;2.33;;;;;;;0.77;100.00;97668.94;4975587;28;20197;-87
2021/03/23 00:28:10;;;;;;;1.63;1.53;;;;;;;0.71;100.00;97672.59;4975688;28;20197;-87
2021/03/23 00:30:38;;;;;;;1.83;1.73;;;;;;;0.54;100.00;97677.63;4975645;28;20198;-87
2021/03/23 00:33:05;;;;;;;1.80;1.70;;;;;;;0.50;100.00;97679.50;4975619;28;20201;-87
2021/03/23 00:35:32;;;;;;;2.20;2.00;;;;;;;0.62;100.00;97691.94;4975868;28;20632;-87
2021/03/23 00:38:02;;;;;;;2.37;2.17;;;;;;;0.64;100.00;97695.31;4975425;28;20228;-87
2021/03/23 00:40:31;;;;;;;2.23;2.03;;;;;;;0.54;100.00;97699.16;4976297;28;20649;-86
2021/03/23 00:45:38;;;;;;;1.83;1.73;;;;;;;0.56;100.00;97710.31;5009384;23;20609;-83
2021/03/23 00:48:06;;;;;;;2.53;2.10;;;;;;;0.53;100.00;97714.75;5013971;28;20187;-84
2021/03/23 00:50:34;;;;;;;2.80;1.80;;;;;;;0.61;100.00;97725.63;5013899;28;20575;-84
2021/03/23 00:53:01;;;;;;;2.07;1.87;;;;;;;0.65;100.00;97720.28;5012777;28;20580;-83
2021/03/23 00:55:28;;;;;;;2.00;1.90;;;;;;;0.66;100.00;97729.72;5013802;28;20261;-83
2021/03/23 00:57:55;;;;;;;1.90;1.80;;;;;;;0.63;100.00;97723.84;5013624;28;20321;-84
2021/03/23 01:00:23;;;;;;;1.97;1.87;;;;;;;0.65;100.00;97720.28;5014104;28;20250;-84
2021/03/23 01:02:50;;;;;;;1.90;1.80;;;;;;;0.63;100.00;97729.00;5013406;28;20638;-84
2021/03/23 01:05:20;;;;;;;1.97;1.87;;;;;;;0.60;100.00;97717.03;5013615;28;20225;-84
2021/03/23 01:07:48;;;;;;;2.20;2.10;;;;;;;0.63;100.00;97729.84;5012893;28;20283;-84
2021/03/23 01:10:18;;;;;;;2.77;2.57;;;;;;;0.55;100.00;97733.63;5013634;28;20242;-84
2021/03/23 01:12:45;;;;;;;2.30;2.10;;;;;;;0.60;100.00;97732.56;5013618;28;20274;-83
2021/03/23 01:15:15;;;;;;;2.80;2.60;;;;;;;0.60;100.00;97736.91;5013833;28;20200;-83
2021/03/23 01:17:42;;;;;;;2.80;2.60;;;;;;;0.57;100.00;97737.84;5013161;28;20223;-83
2021/03/23 01:20:11;;;;;;;2.80;2.60;;;;;;;0.51;100.00;97738.09;5013435;28;20235;-84
2021/03/23 01:22:38;;;;;;;2.20;2.10;;;;;;;0.61;100.00;97744.59;5013213;28;20619;-84
2021/03/23 01:25:08;;;;;;;2.37;2.17;;;;;;;0.69;100.00;97749.44;5013389;28;20200;-84
2021/03/23 01:27:35;;;;;;;2.60;2.40;;;;;;;0.61;100.00;97747.19;5013387;28;20222;-83
2021/03/23 01:30:02;;;;;;;3.00;2.70;;;;;;;0.57;100.00;97748.19;5013139;28;20290;-83
2021/03/23 01:32:28;;;;;;;2.47;2.37;;;;;;;0.60;100.00;97753.25;5013192;28;20223;-84
2021/03/23 01:34:55;;;;;;;2.53;2.33;;;;;;;0.67;100.00;97751.28;5013204;28;20683;-83
2021/03/23 01:37:22;;;;;;;3.07;2.77;;;;;;;0.72;100.00;97757.09;5013212;28;20675;-83
2021/03/23 01:39:49;;;;;;;2.33;2.13;;;;;;;0.80;100.00;97749.88;5013134;28;20691;-83
2021/03/23 01:42:19;;;;;;;2.33;2.13;;;;;;;0.74;100.00;97746.69;5012874;28;20210;-83
2021/03/23 01:44:47;;;;;;;2.87;2.57;;;;;;;0.74;100.00;97738.94;5012820;28;20231;-83
2021/03/23 01:47:14;;;;;;;2.83;2.27;;;;;;;0.70;100.00;97744.22;5012519;28;20191;-83
2021/03/23 01:49:44;;;;;;;2.47;2.27;;;;;;;0.88;100.00;97732.28;5012900;28;20276;-83
2021/03/23 01:52:14;;;;;;;3.17;2.97;;;;;;;0.86;100.00;97735.84;5012682;28;20274;-84
2021/03/23 01:54:46;;;;;;;2.43;2.33;;;;;;;0.84;100.00;97720.38;5012668;28;20203;-84
2021/03/23 01:57:14;;;;;;;2.33;2.13;;;;;;;0.85;100.00;97728.97;5012336;28;20247;-83
2021/03/23 01:59:46;;;;;;;2.60;2.40;;;;;;;0.78;100.00;97730.13;5012773;28;20195;-83
2021/03/23 02:02:13;;;;;;;3.10;2.80;;;;;;;0.66;100.00;97721.13;5012830;28;20573;-83
2021/03/23 02:04:40;;;;;;;2.53;2.33;;;;;;;0.69;100.00;97728.75;5012675;28;20211;-84
2021/03/23 02:07:07;;;;;;;2.77;2.57;;;;;;;0.77;100.00;97721.53;5012278;28;20253;-84
2021/03/23 02:09:36;;;;;;;2.30;2.10;;;;;;;0.79;100.00;97724.88;5005269;28;20231;-84
2021/03/23 02:12:06;;;;;;;2.63;2.43;;;;;;;0.76;100.00;97724.16;5011689;28;20652;-83
2021/03/23 02:14:38;;;;;;;3.20;3.00;;;;;;;0.76;100.00;97719.00;4973449;28;20194;-82
2021/03/23 02:17:17;;;;;;;2.83;2.63;;;;;;;0.75;100.00;97718.16;4973059;28;20307;-82
2021/03/23 02:19:45;;;;;;;2.80;2.57;;;;;;;0.77;100.00;97724.13;4972926;28;20271;-86
2021/03/23 02:22:23;;;;;;;2.57;2.37;;;;;;;0.72;100.00;97713.09;4973668;28;20228;-86
2021/03/23 02:24:50;;;;;;;2.87;2.60;;;;;;;0.60;100.00;97718.78;4974187;28;20189;-82
2021/03/23 02:27:18;;;;;;;2.60;2.40;;;;;;;0.64;100.00;97728.94;5011962;28;20337;-82
2021/03/23 02:29:45;;;;;;;2.63;2.43;;;;;;;0.65;100.00;97737.53;5011872;28;20258;-84
2021/03/23 02:32:12;;;;;;;2.67;2.47;;;;;;;0.63;100.00;97735.03;5011952;28;20199;-82
2021/03/23 02:34:39;;;;;;;2.63;2.43;;;;;;;0.66;100.00;97741.84;5011908;28;20675;-83
2021/03/23 02:37:06;;;;;;;2.50;2.30;;;;;;;0.66;100.00;97747.84;5011534;28;20259;-83
2021/03/23 02:39:35;;;;;;;2.70;2.50;;;;;;;0.59;100.00;97741.25;5011640;28;20709;-82
2021/03/23 02:42:03;;;;;;;2.67;2.47;;;;;;;0.59;100.00;97749.00;5011851;28;20741;-81
2021/03/23 02:44:39;;;;;;;2.70;2.50;;;;;;;0.58;100.00;97754.22;5011752;28;20373;-85
2021/03/23 02:47:07;;;;;;;2.50;2.30;;;;;;;0.63;100.00;97752.31;5012000;28;20215;-84
2021/03/23 02:49:33;;;;;;;2.90;2.50;;;;;;;0.64;100.00;97754.81;5011735;28;20238;-83
2021/03/23 02:52:00;;;;;;;2.00;1.90;;;;;;;0.58;100.00;97757.63;5011782;28;20291;-82
2021/03/23 02:54:27;;;;;;;2.23;2.03;;;;;;;0.60;100.00;97755.84;5011759;28;20253;-82
2021/03/23 02:56:55;;;;;;;2.83;2.63;;;;;;;0.65;100.00;97769.44;5011569;28;20212;-82
2021/03/23 02:59:22;;;;;;;2.67;2.47;;;;;;;0.61;100.00;97757.53;5012186;28;20221;-83
2021/03/23 03:01:48;;;;;;;2.37;2.17;;;;;;;0.59;100.00;97766.25;5012000;28;20239;-82
2021/03/23 03:04:15;;;;;;;2.67;2.47;;;;;;;0.64;100.00;97762.59;5008993;28;20200;-83
2021/03/23 03:06:42;;;;;;;2.37;2.23;;;;;;;0.61;100.00;97773.03;5011538;28;20203;-84
2021/03/23 03:09:09;;;;;;;2.90;2.70;;;;;;;0.67;100.00;97759.88;5009366;28;20213;-83
2021/03/23 03:11:36;;;;;;;2.33;2.13;;;;;;;0.74;100.00;97757.88;5011564;28;20203;-85
2021/03/23 03:14:04;;;;;;;3.07;2.87;;;;;;;0.59;100.00;97753.31;5009330;28;20619;-84
2021/03/23 03:16:31;;;;;;;2.60;2.40;;;;;;;0.73;100.00;97766.56;5011613;28;20195;-84
2021/03/23 03:18:57;;;;;;;3.60;3.10;;;;;;;0.61;100.00;97764.44;5011731;28;20224;-85
2021/03/23 03:21:25;;;;;;;3.90;3.50;;;;;;;0.53;100.00;97766.50;5011743;28;20254;-85
2021/03/23 03:23:52;;;;;;;3.63;3.33;;;;;;;0.54;100.00;97766.44;5011413;28;20200;-85
2021/03/23 03:26:18;;;;;;;4.07;3.77;;;;;;;0.37;100.00;97763.66;5011752;28;20239;-85
2021/03/23 03:28:51;;;;;;;4.17;3.83;;;;;;;0.41;100.00;97772.97;5011696;28;20243;-84
2021/03/23 03:31:21;;;;;;;3.97;3.57;;;;;;;0.34;100.00;97763.78;5013761;28;20629;-84
2021/03/23 03:33:49;;;;;;;4.87;3.83;;;;;;;0.43;100.00;97773.78;5015711;28;20578;-84
2021/03/23 03:36:15;;;;;;;4.83;4.33;;;;;;;0.42;100.00;97772.09;5012885;28;20314;-84
2021/03/23 03:38:42;;;;;;;5.17;4.67;;;;;;;0.34;100.00;97763.78;5014820;28;20306;-85
2021/03/23 03:41:09;;;;;;;5.67;4.63;;;;;;;0.34;100.00;97768.94;5015028;28;20210;-85
2021/03/23 03:43:37;;;;;;;6.27;5.27;;;;;;;0.26;100.00;97765.81;5015049;28;20254;-85
2021/03/23 03:46:04;;;;;;;5.50;5.00;;;;;;;0.34;100.00;97768.94;5015128;28;20192;-85
2021/03/23 03:48:32;;;;;;;5.97;4.93;;;;;;;0.36;100.00;97767.16;5015132;28;20291;-85
2021/03/23 03:50:59;;;;;;;6.50;5.83;;;;;;;0.33;100.00;97768.09;5015468;28;20586;-85
2021/03/23 03:53:26;;;;;;;6.43;5.77;;;;;;;0.36;100.00;97773.16;5015157;28;20736;-85
2021/03/23 03:55:53;;;;;;;8.87;6.90;;;;;;;0.36;100.00;97777.50;5015408;28;20254;-85
2021/03/23 03:58:21;;;;;;;6.13;5.53;;;;;;;0.42;100.00;97779.84;5014856;28;20314;-85
2021/03/23 04:00:48;;;;;;;6.50;5.90;;;;;;;0.30;100.00;97782.91;5015037;28;20192;-85
2021/03/23 04:03:17;;;;;;;7.23;6.53;;;;;;;0.37;100.00;97764.50;5014903;28;20551;-85
2021/03/23 04:05:47;;;;;;;7.83;6.57;;;;;;;0.39;100.00;97767.03;5014932;28;20206;-85
2021/03/23 04:08:17;;;;;;;6.67;5.90;;;;;;;0.29;100.00;97770.88;5015086;28;20253;-86
2021/03/23 04:10:44;;;;;;;7.30;6.60;;;;;;;0.25;100.00;97766.72;5014904;28;20287;-85
2021/03/23 04:13:11;;;;;;;9.50;7.43;;;;;;;0.26;100.00;97771.00;5014754;28;20207;-85
2021/03/23 04:15:40;;;;;;;9.53;7.03;;;;;;;0.34;100.00;97768.94;5014981;28;20203;-85
2021/03/23 04:18:09;;;;;;;7.50;6.70;;;;;;;0.29;100.00;97769.13;5014386;28;20223;-86
2021/03/23 04:20:36;;;;;;;6.93;6.20;;;;;;;0.40;100.00;97763.53;5015065;28;20199;-86
2021/03/23 04:23:05;;;;;;;6.77;5.70;;;;;;;0.27;100.00;97775.25;5014623;28;20226;-86
2021/03/23 04:25:33;;;;;;;8.13;6.87;;;;;;;0.22;100.00;97773.69;5015438;28;20290;-85
2021/03/23 04:28:01;;;;;;;9.17;6.40;;;;;;;0.20;100.00;97777.22;5014783;28;20191;-85
2021/03/23 04:30:29;;;;;;;7.87;6.77;;;;;;;0.25;100.00;97780.50;5014576;28;20698;-85
2021/03/23 04:32:57;;;;;;;7.70;6.60;;;;;;;0.28;100.00;97784.69;5014623;28;20258;-85
2021/03/23 04:35:29;;;;;;;10.07;6.57;;;;;;;0.27;100.00;97796.78;5014361;28;20200;-85
2021/03/23 04:37:56;;;;;;;9.60;7.33;;;;;;;0.25;100.00;97800.34;5014215;28;20258;-85
2021/03/23 04:40:24;;;;;;;10.83;7.77;;;;;;;0.20;100.00;97774.63;5013913;28;20199;-85
2021/03/23 04:42:50;;;;;;;12.97;9.57;;;;;;;0.17;100.00;97780.78;5013455;28;20253;-84
2021/03/23 04:45:19;;;;;;;7.27;6.27;;;;;;;0.14;100.00;97782.63;5014052;28;20258;-85
2021/03/23 04:47:46;;;;;;;9.60;6.80;;;;;;;0.26;100.00;97777.00;5008762;28;20253;-82
2021/03/23 04:50:14;;;;;;;7.80;6.97;;;;;;;0.16;100.00;97755.81;5013535;28;20581;-85
2021/03/23 04:52:41;;;;;;;8.23;7.17;;;;;;;0.08;100.00;97767.38;5014156;28;20641;-85
2021/03/23 04:55:09;;;;;;;6.97;6.27;;;;;;;0.18;100.00;97759.19;5013989;28;20250;-85
2021/03/23 04:57:37;;;;;;;7.83;6.57;;;;;;;0.18;100.00;97760.94;5013805;28;20227;-85
2021/03/23 05:00:06;;;;;;;7.40;6.13;;;;;;;0.21;100.00;97743.56;5014205;28;20207;-86
2021/03/23 05:02:33;;;;;;;5.67;5.17;;;;;;;0.23;100.00;97741.75;5013870;28;20295;-86
2021/03/23 05:05:00;;;;;;;6.13;5.20;;;;;;;0.22;100.00;97734.06;5013641;28;20286;-86
2021/03/23 05:07:28;;;;;;;6.23;5.63;;;;;;;0.16;100.00;97729.13;5013822;28;20326;-86
2021/03/23 05:09:55;;;;;;;5.30;4.80;;;;;;;0.13;100.00;97734.41;5013903;28;20214;-86
2021/03/23 05:12:21;;;;;;;5.33;4.83;;;;;;;0.19;100.00;97729.00;5013706;28;20291;-85
2021/03/23 05:14:49;;;;;;;5.97;5.17;;;;;;;0.12;100.00;97723.22;5013904;28;20199;-85
2021/03/23 05:17:17;;;;;;;6.40;5.80;;;;;;;0.15;100.00;97711.94;5014031;28;20314;-86
2021/03/23 05:19:44;;;;;;;5.20;4.70;;;;;;;0.10;100.00;97712.09;5013846;28;20243;-86
2021/03/23 05:22:11;;;;;;;5.63;5.13;;;;;;;0.26;100.00;97719.28;5013794;28;20338;-86
2021/03/23 05:24:38;;;;;;;7.00;6.20;;;;;;;0.19;100.00;97719.50;5013546;28;20202;-86
2021/03/23 05:27:06;;;;;;;7.47;6.67;;;;;;;0.25;100.00;97722.78;5013380;28;20696;-86
2021/03/23 05:29:33;;;;;;;6.77;6.03;;;;;;;0.34;100.00;97722.41;5013491;28;20286;-86
2021/03/23 05:32:00;;;;;;;7.83;7.03;;;;;;;0.37;100.00;97720.53;5013069;28;20211;-86
2021/03/23 05:34:27;;;;;;;7.10;6.40;;;;;;;0.33;100.00;97712.97;5013689;28;20206;-85
2021/03/23 05:36:54;;;;;;;7.43;6.37;;;;;;;0.42;100.00;97733.31;5013333;28;20203;-85
2021/03/23 05:39:21;;;;;;;8.37;7.17;;;;;;;0.38;100.00;97727.41;5013358;28;20199;-86
2021/03/23 05:41:56;;;;;;;8.53;7.27;;;;;;;0.34;100.00;97731.00;5013150;28;20203;-86
2021/03/23 05:44:47;;;;;;;8.43;7.10;;;;;;;0.34;100.00;97727.56;5013061;28;20266;-86
2021/03/23 05:47:19;;;;;;;7.10;6.40;;;;;;;0.39;100.00;97736.00;5013349;28;20218;-86
2021/03/23 05:49:52;;;;;;;7.57;6.70;;;;;;;0.36;100.00;97752.47;5013220;28;20223;-85
2021/03/23 05:52:28;;;;;;;9.00;7.70;;;;;;;0.30;100.00;97752.69;5013046;28;20184;-85
2021/03/23 05:55:05;;;;;;;8.07;6.83;;;;;;;0.38;100.00;97749.81;5012790;28;20190;-85
2021/03/23 05:57:35;;;;;;;8.53;6.77;;;;;;;0.40;100.00;97764.38;5013042;28;20642;-86
2021/03/23 06:00:07;;;;;;;14.77;11.00;;;;;;;0.33;100.00;97767.28;5013465;28;20694;-86
2021/03/23 06:02:43;;;;;;;49.93;26.93;;;;;;;0.32;100.00;97774.19;5013095;28;20226;-86
2021/03/23 06:05:39;;;;;;;32.90;21.67;;;;;;;0.41;100.00;97768.66;5013125;28;20188;-86
2021/03/23 06:08:18;;;;;;;12.73;11.10;;;;;;;0.33;100.00;97752.59;5012756;28;20188;-85
2021/03/23 06:10:46;;;;;;;17.03;13.47;;;;;;;0.30;100.00;97757.03;5013071;28;20188;-85
2021/03/23 06:13:24;;;;;;;11.20;9.43;;;;;;;0.25;100.00;97756.38;5012699;28;20199;-86
2021/03/23 06:16:05;;;;;;;8.73;7.57;;;;;;;0.31;100.00;97758.72;5012696;28;20187;-86
2021/03/23 06:18:44;;;;;;;8.60;7.37;;;;;;;0.25;100.00;97748.63;5012600;28;20207;-86
2021/03/23 06:21:15;;;;;;;10.60;7.10;;;;;;;0.45;100.00;97765.06;5012599;28;20191;-85
2021/03/23 06:24:01;;;;;;;8.40;7.33;;;;;;;0.37;100.00;97748.13;5012733;28;20198;-86
2021/03/23 06:26:42;;;;;;;9.60;7.03;;;;;;;0.38;100.00;97757.56;5012618;28;20718;-86
2021/03/23 06:29:29;;;;;;;8.93;7.40;;;;;;;0.45;100.00;97759.03;5012441;28;20187;-86
2021/03/23 06:32:08;;;;;;;7.67;5.80;;;;;;;0.49;100.00;97773.53;5012837;28;20633;-85
2021/03/23 06:34:37;;;;;;;8.03;7.10;;;;;;;0.54;100.00;97766.44;5012523;28;20192;-86
2021/03/23 06:37:20;;;;;;;10.20;8.63;;;;;;;0.47;100.00;97772.75;5012855;28;20317;-85
2021/03/23 06:39:48;;;;;;;8.07;6.77;;;;;;;0.33;100.00;97757.75;5012466;28;20187;-86
2021/03/23 06:42:35;;;;;;;10.03;8.37;;;;;;;0.54;100.00;97745.72;5012688;28;20644;-86
2021/03/23 06:45:12;;;;;;;11.03;8.83;;;;;;;0.68;100.00;97747.78;5012249;28;20610;-85
2021/03/23 06:47:41;;;;;;;7.90;7.10;;;;;;;0.53;100.00;97744.06;5012739;28;20558;-86
2021/03/23 06:50:25;;;;;;;8.10;6.73;;;;;;;0.74;100.00;97733.75;5012501;28;20195;-87
2021/03/23 06:53:08;;;;;;;13.00;10.60;;;;;;;0.76;100.00;97713.81;5012538;28;20195;-86
2021/03/23 06:55:36;;;;;;;8.53;6.77;;;;;;;0.85;100.00;97708.28;5012415;28;20300;-87
2021/03/23 06:58:19;;;;;;;8.07;6.97;;;;;;;0.94;100.00;97707.91;5012231;28;20313;-87
2021/03/23 07:00:46;;;;;;;7.57;6.73;;;;;;;0.86;100.00;97686.66;5011485;28;20194;-86
2021/03/23 07:03:23;;;;;;;8.20;6.13;;;;;;;0.98;100.00;97690.50;5012359;28;20655;-87
2021/03/23 07:05:53;;;;;;;7.83;5.47;;;;;;;1.11;100.00;97676.97;5013473;28;20191;-87
2021/03/23 07:08:23;;;;;;;11.00;7.37;;;;;;;1.16;100.00;97684.53;5016150;28;20195;-86
2021/03/23 07:11:08;;;;;;;9.77;7.63;;;;;;;1.19;100.00;97676.63;5016695;28;20187;-87
2021/03/23 07:13:39;;;;;;;8.33;7.47;;;;;;;1.35;100.00;97658.66;5016344;28;20227;-87
2021/03/23 07:16:21;;;;;;;7.43;6.57;;;;;;;1.39;100.00;97655.03;5016105;28;20287;-87
2021/03/23 07:18:50;;;;;;;7.00;5.07;;;;;;;1.34;100.00;97644.84;5015932;28;20247;-86
2021/03/23 07:21:38;;;;;;;6.90;5.47;;;;;;;1.25;100.00;97626.28;5015923;28;20202;-87
2021/03/23 07:24:08;;;;;;;5.77;5.17;;;;;;;1.53;100.00;97620.72;5016141;28;20206;-86
2021/03/23 07:26:36;;;;;;;8.00;5.93;;;;;;;1.53;100.00;97623.31;5016196;28;20622;-87
2021/03/23 07:29:24;;;;;;;6.90;5.70;;;;;;;1.82;100.00;97603.84;5016088;28;20195;-86
2021/03/23 07:32:04;;;;;;;6.50;5.13;;;;;;;1.98;100.00;97591.00;5015928;28;20203;-86
2021/03/23 07:34:34;;;;;;;6.20;5.30;;;;;;;1.85;100.00;97586.38;5015936;28;20199;-87
2021/03/23 07:37:06;;;;;;;5.00;4.40;;;;;;;1.97;100.00;97571.97;5015813;28;20246;-87
2021/03/23 07:39:40;;;;;;;5.93;5.40;;;;;;;1.87;100.00;97552.59;5015815;28;20231;-87
2021/03/23 07:42:16;;;;;;;6.40;5.47;;;;;;;1.96;100.00;97544.38;5015662;28;20734;-87
2021/03/23 07:44:48;;;;;;;7.40;5.37;;;;;;;1.70;100.00;97542.19;5015531;28;20313;-87
2021/03/23 07:47:18;;;;;;;7.97;5.93;;;;;;;1.98;100.00;97533.94;5015782;28;20620;-86
2021/03/23 07:49:50;;;;;;;8.07;6.60;;;;;;;2.27;100.00;97524.72;5015879;28;20199;-87
2021/03/23 07:52:24;;;;;;;4.70;4.20;;;;;;;2.27;100.00;97510.00;5015560;28;20215;-87
2021/03/23 07:54:51;;;;;;;5.07;4.53;;;;;;;2.46;100.00;97486.56;5015407;28;20191;-86
2021/03/23 07:57:49;;;;;;;5.57;4.80;;;;;;;2.50;100.00;97471.69;5015511;28;20203;-87
2021/03/23 08:00:22;;;;;;;4.73;3.93;;;;;;;2.79;100.00;97431.19;5015390;28;20191;-87
2021/03/23 08:03:11;;;;;;;6.83;4.60;;;;;;;2.68;100.00;97412.75;5015400;28;20199;-87
2021/03/23 08:05:49;;;;;;;4.60;3.80;;;;;;;2.78;100.00;97375.00;5015190;28;20198;-87
2021/03/23 08:08:38;;;;;;;5.10;4.37;;;;;;;2.84;100.00;97362.53;5015311;28;20191;-87
2021/03/23 08:11:19;;;;;;;4.20;3.80;;;;;;;2.76;100.00;97333.53;5013177;28;20290;-87
2021/03/23 08:14:01;;;;;;;6.63;3.70;;;;;;;2.98;100.00;97307.22;5015082;28;20183;-87
2021/03/23 08:16:42;;;;;;;3.80;3.50;;;;;;;2.73;100.00;97261.00;5015118;28;20752;-87
2021/03/23 08:19:32;;;;;;;4.63;3.50;;;;;;;2.81;100.00;97260.59;5015083;28;20762;-87
2021/03/23 08:22:44;;;;;;;4.17;3.77;;;;;;;2.62;100.00;97209.69;5015031;28;20187;-87
2021/03/23 08:25:19;;;;;;;5.30;3.57;;;;;;;2.58;100.00;97187.44;4973957;28;20201;-86
2021/03/23 08:28:01;;;;;;;5.43;3.63;;;;;;;2.89;100.00;97187.47;5011582;28;20575;-86
2021/03/23 08:30:37;;;;;;;4.33;3.60;;;;;;;2.76;100.00;97144.03;5014838;28;20191;-86
2021/03/23 08:33:19;;;;;;;4.67;3.17;;;;;;;2.85;100.00;97129.69;5015069;28;20183;-87
2021/03/23 08:36:04;;;;;;;4.23;3.77;;;;;;;2.81;100.00;97092.69;5014659;28;20245;-87
2021/03/23 08:38:45;;;;;;;3.83;3.23;;;;;;;2.66;100.00;97066.78;5014504;28;20211;-87
2021/03/23 08:41:23;;;;;;;6.30;4.03;;;;;;;2.86;100.00;97087.22;5014422;28;20278;-87
2021/03/23 08:43:51;;;;;;;4.60;3.67;;;;;;;2.75;100.00;97064.47;5014560;28;20281;-86
2021/03/23 08:46:22;;;;;;;3.73;3.37;;;;;;;2.79;100.00;97065.97;5014366;28;20195;-87
2021/03/23 08:48:52;;;;;;;3.80;3.33;;;;;;;3.13;100.00;97052.72;5014359;28;20219;-87
2021/03/23 11:05:44;;;;;;;2.90;2.60;;;;;;;7.25;100.00;95764.09;5130759;27;20515;-87
2021/03/23 11:08:13;;;;;;;6.07;2.63;;;;;;;6.97;100.00;95758.13;5130833;27;20182;-86
2021/03/23 11:10:40;;;;;;;4.60;4.20;;;;;;;6.49;100.00;95692.19;5130554;27;20201;-87
2021/03/23 11:13:07;;;;;;;7.57;3.53;;;;;;;6.68;100.00;95696.47;5130458;27;20246;-87
2021/03/23 11:15:40;;;;;;;4.80;3.07;;;;;;;6.77;100.00;95719.09;5130377;27;20195;-87
2021/03/23 11:18:15;;;;;;;6.63;3.90;;;;;;;7.29;100.00;95750.56;5130503;27;20195;-86
2021/03/23 11:20:43;;;;;;;4.80;3.20;;;;;;;6.75;100.00;95721.00;5130546;27;20190;-87
2021/03/23 11:23:37;;;;;;;3.40;2.40;;;;;;;6.53;100.00;95705.78;5130157;27;20740;-86
2021/03/23 11:26:07;;;;;;;2.53;2.30;;;;;;;7.08;100.00;95776.19;5116391;27;20206;-87
2021/03/23 11:28:34;;;;;;;3.60;3.03;;;;;;;7.46;100.00;95863.16;5130087;27;20659;-86
2021/03/23 11:31:02;;;;;;;4.23;2.73;;;;;;;7.21;100.00;95842.00;5130150;27;20191;-86
2021/03/23 11:33:30;;;;;;;3.53;3.23;;;;;;;7.10;100.00;95844.81;5130020;27;20309;-87
2021/03/23 11:35:58;;;;;;;6.07;3.83;;;;;;;6.87;100.00;95813.06;5129892;27;20282;-86
2021/03/23 11:38:25;;;;;;;3.10;2.90;;;;;;;6.99;100.00;95811.88;5129952;27;20195;-87
2021/03/23 11:40:54;;;;;;;6.10;4.93;;;;;;;7.49;100.00;95840.13;5129811;27;20206;-86
2021/03/23 11:43:27;;;;;;;5.97;4.47;;;;;;;7.31;100.00;95832.28;5129805;27;20198;-87
2021/03/23 11:45:59;;;;;;;12.23;7.23;;;;;;;7.64;100.00;95806.41;5130086;27;20243;-86
2021/03/23 11:48:28;;;;;;;21.23;10.83;;;;;;;7.89;100.00;95793.50;5130217;27;20210;-87
2021/03/23 11:50:55;;;;;;;7.27;4.90;;;;;;;7.78;100.00;95763.19;5129533;27;20252;-87
2021/03/23 11:53:24;;;;;;;6.53;4.80;;;;;;;7.88;100.00;95742.97;5129473;27;20227;-86
2021/03/23 11:55:51;;;;;;;11.27;5.47;;;;;;;7.82;100.00;95741.78;5129781;27;20617;-86
2021/03/23 11:58:18;;;;;;;9.47;6.23;;;;;;;7.28;100.00;95764.63;5129646;27;20278;-86
2021/03/23 12:00:45;;;;;;;2.97;2.77;;;;;;;7.59;100.00;95847.91;5130512;27;20223;-87
2021/03/23 12:03:14;;;;;;;6.17;4.67;;;;;;;7.71;100.00;95859.78;5129152;27;20286;-86
2021/03/23 12:05:42;;;;;;;5.97;5.37;;;;;;;7.89;100.00;95843.22;5120573;27;20183;-87
2021/03/23 12:08:23;;;;;;;4.83;4.33;;;;;;;7.25;100.00;95821.63;5115780;28;20278;-86
2021/03/23 12:10:59;;;;;;;3.53;3.23;;;;;;;6.70;100.00;95881.75;5115428;28;20697;-86
2021/03/23 12:13:35;;;;;;;2.87;2.40;;;;;;;6.59;100.00;95984.59;5115345;28;20252;-86
2021/03/23 12:16:07;;;;;;;3.17;2.87;;;;;;;6.89;100.00;96109.78;5115430;28;20728;-86
2021/03/23 12:18:35;;;;;;;5.20;3.23;;;;;;;7.66;100.00;96143.72;5115241;28;20188;-86
2021/03/23 12:21:03;;;;;;;5.53;3.40;;;;;;;7.74;100.00;96107.19;5115015;28;20274;-86
2021/03/23 12:23:31;;;;;;;4.00;3.03;;;;;;;7.73;100.00;96114.19;5115380;28;20195;-86
2021/03/23 12:25:59;;;;;;;4.10;3.63;;;;;;;7.83;100.00;96061.84;5115459;28;20195;-86
2021/03/23 12:28:26;;;;;;;2.87;2.67;;;;;;;8.09;100.00;96015.63;5115505;28;20229;-86
2021/03/23 12:30:53;;;;;;;3.27;2.97;;;;;;;7.94;100.00;95954.34;5114753;28;20195;-85
2021/03/23 12:33:20;;;;;;;3.17;2.53;;;;;;;8.09;100.00;95947.59;5115288;27;20710;-85
2021/03/23 12:35:47;;;;;;;3.90;3.53;;;;;;;7.74;100.00;95951.03;5114943;28;20195;-86
2021/03/23 12:38:15;;;;;;;3.60;3.00;;;;;;;7.79;100.00;95985.44;5115079;28;20235;-86
2021/03/23 12:40:42;;;;;;;3.17;2.83;;;;;;;7.86;100.00;96009.19;5114820;28;20211;-86
2021/03/23 12:43:19;;;;;;;3.43;3.10;;;;;;;7.79;100.00;96003.75;5114967;28;20255;-85
2021/03/23 12:45:46;;;;;;;2.90;2.70;;;;;;;8.22;100.00;96030.97;5115050;28;20570;-86
2021/03/23 12:48:13;;;;;;;3.63;2.97;;;;;;;8.03;100.00;95945.56;5114738;28;20231;-85
2021/03/23 12:50:40;;;;;;;2.93;2.50;;;;;;;8.06;100.00;95933.97;5114702;28;20214;-86
2021/03/23 12:53:12;;;;;;;3.27;2.77;;;;;;;7.45;100.00;95888.47;5114592;28;20231;-86
2021/03/23 12:55:41;;;;;;;2.13;1.97;;;;;;;7.31;100.00;95895.03;5115079;28;20206;-86
2021/03/23 12:58:15;;;;;;;3.80;2.70;;;;;;;7.93;100.00;95967.53;5114479;28;20674;-85
2021/03/23 13:00:42;;;;;;;3.23;2.57;;;;;;;7.59;100.00;95880.13;5114582;28;20571;-85
2021/03/23 13:03:12;;;;;;;2.73;2.53;;;;;;;7.57;100.00;95895.13;5114710;27;20278;-85
2021/03/23 13:05:39;;;;;;;2.57;2.37;;;;;;;7.47;100.00;95872.63;5114665;27;20565;-85
2021/03/23 13:08:16;;;;;;;2.30;2.10;;;;;;;7.50;100.00;95886.22;5114400;28;20195;-86
2021/03/23 13:10:46;;;;;;;3.70;2.57;;;;;;;7.56;100.00;95910.97;5114065;28;20652;-86
2021/03/23 13:13:17;;;;;;;4.73;2.60;;;;;;;7.68;100.00;95907.16;5114204;28;20722;-84
2021/03/23 13:15:44;;;;;;;2.63;2.43;;;;;;;8.14;100.00;95968.09;5114025;28;20183;-85
2021/03/23 13:18:11;;;;;;;3.10;2.73;;;;;;;7.92;100.00;95918.81;5113045;27;20222;-85
2021/03/23 13:20:39;;;;;;;3.83;3.00;;;;;;;7.73;100.00;95910.16;5114241;28;20231;-85
2021/03/23 13:23:07;;;;;;;2.50;2.30;;;;;;;7.24;100.00;95912.28;5114051;28;20740;-85
2021/03/23 13:25:37;;;;;;;2.50;2.20;;;;;;;7.06;100.00;95951.41;5114219;28;20254;-85
2021/03/23 13:28:20;;;;;;;2.87;2.50;;;;;;;7.36;100.00;96002.59;5113851;28;20183;-85
2021/03/23 13:30:48;;;;;;;2.70;2.50;;;;;;;7.66;100.00;96024.19;5114059;28;20626;-86
2021/03/23 13:33:17;;;;;;;9.60;5.57;;;;;;;7.80;100.00;96030.72;5113905;28;20223;-85
2021/03/23 13:35:44;;;;;;;4.70;2.50;;;;;;;7.82;100.00;96040.06;5113588;28;20223;-85
2021/03/23 13:38:17;;;;;;;3.73;3.00;;;;;;;7.49;100.00;96024.97;5113459;28;20668;-85
2021/03/23 13:40:46;;;;;;;3.90;2.83;;;;;;;7.50;100.00;96031.84;5113571;28;20252;-86
2021/03/23 13:43:17;;;;;;;3.73;2.87;;;;;;;7.15;100.00;96000.22;5113692;28;20284;-85
2021/03/23 13:45:49;;;;;;;4.53;3.40;;;;;;;7.28;100.00;96033.88;5113752;28;20187;-85
2021/03/23 13:48:24;;;;;;;2.13;1.93;;;;;;;7.21;100.00;96009.28;5113733;28;20187;-85
2021/03/23 13:50:51;;;;;;;11.73;8.00;;;;;;;7.07;100.00;95987.06;5113340;28;20271;-85
2021/03/23 13:53:21;;;;;;;3.00;2.67;;;;;;;7.08;100.00;95998.31;5113340;28;20229;-85
2021/03/23 13:55:48;;;;;;;2.30;2.10;;;;;;;7.41;100.00;96025.69;5113332;28;20274;-85
2021/03/23 13:58:15;;;;;;;2.93;2.43;;;;;;;7.34;100.00;96009.78;5113075;28;20287;-85
2021/03/23 14:00:44;;;;;;;4.50;4.10;;;;;;;7.23;100.00;96001.28;5113477;28;20206;-85
2021/03/23 14:03:13;;;;;;;6.07;4.67;;;;;;;7.40;100.00;96013.59;5112972;28;20246;-85
2021/03/23 14:05:41;;;;;;;3.50;3.20;;;;;;;7.21;100.00;95988.38;5113201;28;20187;-85